Sim-Planet VA

Sim-Planet Nouvel Horizon. By: Anthony Pay
Since 2020.




 METAR ET TAF INFORMATION
METAR FOR LJLJ
ADDS - METARS form results

(1854 UTC 28 January 2022)
Data provider http://aviationweather.gov/metar/data/
 
METAR text: LJLJ 281830Z 33009KT 9999 FEW060 SCT080 06/M10 Q1027 NOSIG
Conditions at: LJLJ (LJUBLJANA/BRNIK , SI) observed 1830 UTC 28 January 2022
Temperature: 6.0°C (43°F)
Dewpoint: -10.0°C (14°F) [RH = 31%]
Pressure (altimeter): 30.32 inches Hg (1027.0 mb)
Winds: from the NNW (330 degrees) at 10 MPH (9 knots; 4.6 m/s)
Visibility: 6 or more miles (10+ km)
Ceiling: at least 12,000 feet AGL
Clouds: few clouds at 6000 feet AGL
scattered clouds at 8000 feet AGL
Weather: no significant weather observed at this time

METAR text: LJLJ 281800Z 33008KT 300V030 9999 FEW060 05/M11 Q1027 NOSIG
Conditions at: LJLJ (LJUBLJANA/BRNIK , SI) observed 1800 UTC 28 January 2022
Temperature: 5.0°C (41°F)
Dewpoint: -11.0°C (12°F) [RH = 30%]
Pressure (altimeter): 30.32 inches Hg (1027.0 mb)
Winds: from the NNW (330 degrees) at 9 MPH (8 knots; 4.1 m/s)
Visibility: 6 or more miles (10+ km)
Ceiling: at least 12,000 feet AGL
Clouds: few clouds at 6000 feet AGL
Weather: no significant weather observed at this time

Forecast for: LJLJ (LJUBLJANA/BRNIK , SI)
Text: TAF LJLJ 281700Z 2818/2918 31007KT 9999 FEW060
Forecast period: 1800 UTC 28 January 2022 to 1800 UTC 29 January 2022
Forecast type: FROM: standard forecast or significant change
Winds: from the NW (310 degrees) at 8 MPH (7 knots; 3.6 m/s)
Visibility: 6 or more miles (10+ km)
Ceiling: at least 12,000 feet AGL
Clouds: few clouds at 6000 feet AGL
Weather: no significant weather forecast for this period

 AÉROPORT DE AÉROPORT

 INFORMATIONS DE PISTE
Piste 13 Longueur de la piste 10827 ft Largeur de la piste 148 ft
Élévation de la piste 1273 ft Seuil de la piste déplacés 0 ft Runway heading 126
Piste 31 Longueur de la piste 10827 ft Largeur de la piste 148 ft
Élévation de la piste 1191 ft Seuil de la piste déplacés 0 ft Runway heading 306

 AÉROPORT FRÉQUENCES
Type A/D Nom APP Féquence 135.275 MHZ
Type ATIS Nom also on VO Féquence 128.175 MHZ
Type GND Nom Féquence 121.625 MHZ
Type HANDLING & Nom Féquence 131.4 MHZ
Type TWR Nom TWR Féquence 118 MHZ

 SIDA DE NAVIGATION
Type VOR-DME Nom Dolsko Féquence 112700 KHZ
Type NDB Nom Dolsko Féquence 328 KHZ
Type NDB Nom Ljubljana Féquence 296 KHZ

Nos Partenaires